< < Back
Terminal Aerodrome Forecast


Current Version              Previous Versions:   1  2  3  4  5  6  7  8  9  

Terminal Aerodrome Forecast

330
FTUS44 KMRX 301720
TAFCHA
TAF
KCHA 301720Z 3018/3118 VRB05KT P6SM FEW050
     FM310900 00000KT P6SM FEW250
     FM311600 01005KT P6SM FEW250=



Latest METAR

430
SAUS80 KWBC 310600 RRA
MTRCHA
METAR KCHA 310553Z AUTO 00000KT 10SM CLR 23/20 A3003 RMK AO2 SLP160
T02330200 10322 20233 51003


USA.gov is the U.S. government's official web portal to all federal, state and local government web resources and services.